createdAt,value
2018-07-07T00:00:47.855Z,12.10
2018-07-07T00:01:47.817Z,9.40
2018-07-07T00:02:47.789Z,14.40
2018-07-07T00:03:47.748Z,10.10
2018-07-07T00:04:47.721Z,12.30
2018-07-07T00:05:47.713Z,12.80
2018-07-07T00:06:47.671Z,17.90
2018-07-07T00:07:47.617Z,19.90
2018-07-07T00:08:47.592Z,15.40
2018-07-07T00:09:47.558Z,15.20
2018-07-07T00:10:47.523Z,15.90
2018-07-07T00:11:47.497Z,12.00
2018-07-07T00:12:47.475Z,11.50
2018-07-07T00:13:47.440Z,16.00
2018-07-07T00:14:47.394Z,13.50
2018-07-07T00:15:47.363Z,14.10
2018-07-07T00:16:47.344Z,11.50
2018-07-07T00:17:47.306Z,14.00
2018-07-07T00:18:47.271Z,12.90
2018-07-07T00:19:47.243Z,10.50
2018-07-07T00:20:47.207Z,12.20
2018-07-07T00:21:47.177Z,16.40
2018-07-07T00:22:47.144Z,13.10
2018-07-07T00:23:47.139Z,12.80
2018-07-07T00:24:47.082Z,12.60
2018-07-07T00:25:47.089Z,15.00
2018-07-07T00:26:47.033Z,9.50
2018-07-07T00:27:46.986Z,13.60
2018-07-07T00:28:46.960Z,14.20
2018-07-07T00:29:46.919Z,13.50
2018-07-07T00:30:46.892Z,14.70
2018-07-07T00:31:46.856Z,10.20
2018-07-07T00:32:46.830Z,19.50
2018-07-07T00:33:46.796Z,18.00
2018-07-07T00:34:46.777Z,18.80
2018-07-07T00:35:47.063Z,16.80
2018-07-07T00:36:46.702Z,19.70
2018-07-07T00:37:46.682Z,13.80
2018-07-07T00:38:46.673Z,16.90
2018-07-07T00:39:46.604Z,16.60
2018-07-07T00:40:46.574Z,11.60
2018-07-07T00:41:46.546Z,12.10
2018-07-07T00:42:46.514Z,26.40
2018-07-07T00:43:46.480Z,18.10
2018-07-07T00:44:46.450Z,13.20
2018-07-07T00:45:46.417Z,12.60
2018-07-07T00:46:46.382Z,12.60
2018-07-07T00:47:46.351Z,14.60
2018-07-07T00:48:46.320Z,13.20
2018-07-07T00:49:46.301Z,14.50
2018-07-07T00:50:46.256Z,16.80
2018-07-07T00:51:46.227Z,14.90
2018-07-07T00:52:46.211Z,18.40
2018-07-07T00:53:46.172Z,15.80
2018-07-07T00:54:46.131Z,11.40
2018-07-07T00:55:46.102Z,11.80
2018-07-07T00:56:46.067Z,16.60
2018-07-07T00:57:46.032Z,12.60
2018-07-07T00:58:46.009Z,16.80
2018-07-07T00:59:45.976Z,14.10
2018-07-07T01:00:45.978Z,16.40
2018-07-07T01:01:45.904Z,14.20
2018-07-07T01:02:45.885Z,11.70
2018-07-07T01:03:45.849Z,14.30
2018-07-07T01:04:45.809Z,13.80
2018-07-07T01:05:46.054Z,14.00
2018-07-07T01:06:45.779Z,15.20
2018-07-07T01:07:45.727Z,13.70
2018-07-07T01:08:45.683Z,14.70
2018-07-07T01:09:45.665Z,17.30
2018-07-07T01:10:45.633Z,14.20
2018-07-07T01:11:45.593Z,13.70
2018-07-07T01:12:45.579Z,11.80
2018-07-07T01:13:45.531Z,19.40
2018-07-07T01:14:45.491Z,11.80
2018-07-07T01:15:45.462Z,16.80
2018-07-07T01:16:45.436Z,13.10
2018-07-07T01:17:45.394Z,12.40
2018-07-07T01:18:45.364Z,12.90
2018-07-07T01:19:45.332Z,19.10
2018-07-07T01:20:45.317Z,17.80
2018-07-07T01:21:45.721Z,16.80
2018-07-07T01:22:45.245Z,15.90
2018-07-07T01:23:45.205Z,14.90
2018-07-07T01:24:45.177Z,19.50
2018-07-07T01:25:45.143Z,14.20
2018-07-07T01:26:45.111Z,13.90
2018-07-07T01:27:45.098Z,10.70
2018-07-07T01:28:45.051Z,12.30
2018-07-07T01:29:45.020Z,16.20
2018-07-07T01:30:44.993Z,14.10
2018-07-07T01:31:44.950Z,14.00
2018-07-07T01:32:44.924Z,15.80
2018-07-07T01:33:44.895Z,17.20
2018-07-07T01:34:44.888Z,15.30
2018-07-07T01:35:44.827Z,16.70
2018-07-07T01:36:44.808Z,17.80
2018-07-07T01:37:44.775Z,19.60
2018-07-07T01:38:44.749Z,22.80
2018-07-07T01:39:44.697Z,16.70
2018-07-07T01:40:44.668Z,17.30
2018-07-07T01:41:44.633Z,18.50
2018-07-07T01:42:44.651Z,16.10
2018-07-07T01:43:44.583Z,23.00
2018-07-07T01:44:44.544Z,20.10
2018-07-07T01:45:44.518Z,21.90
2018-07-07T01:46:44.482Z,14.90
2018-07-07T01:47:44.439Z,19.40
2018-07-07T01:48:44.476Z,14.90
2018-07-07T01:49:44.676Z,18.00
2018-07-07T01:50:44.346Z,19.80
2018-07-07T01:51:44.315Z,14.50
2018-07-07T01:52:44.284Z,19.50
2018-07-07T01:53:44.253Z,20.80
2018-07-07T01:54:44.227Z,14.00
2018-07-07T01:55:44.184Z,21.60
2018-07-07T01:56:44.157Z,16.60
2018-07-07T01:57:44.138Z,17.30
2018-07-07T01:58:44.088Z,15.30
2018-07-07T01:59:44.058Z,19.30
2018-07-07T02:00:44.028Z,23.00
2018-07-07T02:01:44.024Z,16.50
2018-07-07T02:02:43.966Z,18.90
2018-07-07T02:03:43.937Z,17.00
2018-07-07T02:04:43.920Z,22.70
2018-07-07T02:05:43.872Z,16.80
2018-07-07T02:06:43.831Z,17.70
2018-07-07T02:07:43.811Z,21.00
2018-07-07T02:08:43.776Z,18.20
2018-07-07T02:09:43.737Z,16.30
2018-07-07T02:10:43.702Z,19.00
2018-07-07T02:11:43.685Z,18.70
2018-07-07T02:12:43.646Z,19.30
2018-07-07T02:13:43.608Z,20.00
2018-07-07T02:14:43.576Z,19.50
2018-07-07T02:15:43.542Z,16.30
2018-07-07T02:16:43.520Z,17.70
2018-07-07T02:17:43.479Z,16.70
2018-07-07T02:18:43.458Z,22.00
2018-07-07T02:19:43.417Z,20.70
2018-07-07T02:20:43.386Z,24.30
2018-07-07T02:21:43.356Z,18.80
2018-07-07T02:22:43.359Z,19.40
2018-07-07T02:23:43.320Z,25.70
2018-07-07T02:24:43.302Z,17.50
2018-07-07T02:25:43.843Z,20.90
2018-07-07T02:26:43.187Z,21.80
2018-07-07T02:27:43.159Z,21.10
2018-07-07T02:28:43.128Z,23.90
2018-07-07T02:29:43.105Z,16.80
2018-07-07T02:30:43.076Z,22.90
2018-07-07T02:31:43.027Z,18.90
2018-07-07T02:32:43.002Z,20.90
2018-07-07T02:33:42.964Z,16.50
2018-07-07T02:34:42.936Z,19.60
2018-07-07T02:35:42.956Z,22.50
2018-07-07T02:36:42.879Z,23.20
2018-07-07T02:37:42.839Z,16.20
2018-07-07T02:38:42.801Z,16.60
2018-07-07T02:39:42.799Z,23.70
2018-07-07T02:40:42.766Z,16.70
2018-07-07T02:41:42.720Z,16.50
2018-07-07T02:42:42.672Z,19.30
2018-07-07T02:43:42.657Z,16.40
2018-07-07T02:44:43.331Z,13.10
2018-07-07T02:45:42.617Z,22.50
2018-07-07T02:46:42.636Z,23.30
2018-07-07T02:47:42.574Z,22.20
2018-07-07T02:48:42.480Z,19.80
2018-07-07T02:49:42.645Z,23.00
2018-07-07T02:50:42.429Z,19.50
2018-07-07T02:51:42.381Z,18.80
2018-07-07T02:52:42.645Z,22.30
2018-07-07T02:53:42.332Z,17.70
2018-07-07T02:54:42.284Z,22.70
2018-07-07T02:55:42.647Z,20.90
2018-07-07T02:56:42.223Z,19.40
2018-07-07T02:57:42.212Z,19.40
2018-07-07T02:58:42.161Z,21.70
2018-07-07T02:59:42.127Z,18.70
2018-07-07T03:00:42.093Z,16.00
2018-07-07T03:01:42.063Z,19.90
2018-07-07T03:02:42.028Z,24.60
2018-07-07T03:03:41.994Z,19.60
2018-07-07T03:04:41.966Z,22.20
2018-07-07T03:05:41.930Z,18.40
2018-07-07T03:06:41.925Z,19.10
2018-07-07T03:07:41.912Z,17.00
2018-07-07T03:08:41.832Z,25.30
2018-07-07T03:09:41.804Z,18.80
2018-07-07T03:10:41.775Z,23.10
2018-07-07T03:11:41.743Z,16.00
2018-07-07T03:12:41.719Z,17.00
2018-07-07T03:13:41.669Z,18.50
2018-07-07T03:14:41.641Z,17.30
2018-07-07T03:15:41.637Z,20.60
2018-07-07T03:16:41.581Z,20.40
2018-07-07T03:17:41.543Z,20.70
2018-07-07T03:18:41.512Z,22.20
2018-07-07T03:19:41.476Z,20.80
2018-07-07T03:20:41.451Z,17.30
2018-07-07T03:21:41.411Z,18.50
2018-07-07T03:22:41.381Z,16.90
2018-07-07T03:23:41.348Z,19.50
2018-07-07T03:24:41.616Z,23.10
2018-07-07T03:25:41.295Z,19.00
2018-07-07T03:26:41.259Z,22.50
2018-07-07T03:27:41.224Z,17.50
2018-07-07T03:28:41.189Z,17.70
2018-07-07T03:29:41.153Z,14.60
2018-07-07T03:30:41.118Z,23.00
2018-07-07T03:31:41.103Z,17.70
2018-07-07T03:32:41.058Z,19.10
2018-07-07T03:33:41.026Z,17.90
2018-07-07T03:34:41.027Z,20.80
2018-07-07T03:35:40.977Z,19.20
2018-07-07T03:36:40.929Z,19.40
2018-07-07T03:37:40.930Z,16.00
2018-07-07T03:38:40.864Z,20.20
2018-07-07T03:39:40.836Z,15.40
2018-07-07T03:40:41.285Z,25.40
2018-07-07T03:41:40.762Z,19.10
2018-07-07T03:42:40.753Z,21.40
2018-07-07T03:43:40.731Z,19.30
2018-07-07T03:44:40.676Z,18.50
2018-07-07T03:45:41.285Z,19.50
2018-07-07T03:46:40.600Z,18.60
2018-07-07T03:47:40.575Z,22.10
2018-07-07T03:48:40.566Z,18.70
2018-07-07T03:49:40.507Z,17.90
2018-07-07T03:50:40.477Z,17.90
2018-07-07T03:51:40.448Z,23.50
2018-07-07T03:52:40.408Z,16.10
2018-07-07T03:53:40.380Z,21.70
2018-07-07T03:54:40.341Z,29.30
2018-07-07T03:55:40.309Z,16.70
2018-07-07T03:56:40.277Z,16.90
2018-07-07T03:57:40.263Z,22.10
2018-07-07T03:58:40.210Z,17.40
2018-07-07T03:59:40.178Z,19.70
2018-07-07T04:00:40.149Z,19.50
2018-07-07T04:01:40.112Z,18.90
2018-07-07T04:02:40.081Z,24.30
2018-07-07T04:03:40.051Z,16.90
2018-07-07T04:04:40.017Z,30.20
2018-07-07T04:05:39.987Z,18.30
2018-07-07T04:06:39.948Z,16.30
2018-07-07T04:07:39.922Z,18.70
2018-07-07T04:08:39.921Z,19.70
2018-07-07T04:09:39.855Z,22.20
2018-07-07T04:10:39.822Z,17.60
2018-07-07T04:11:39.789Z,23.00
2018-07-07T04:12:39.777Z,22.10
2018-07-07T04:13:39.725Z,18.30
2018-07-07T04:14:39.695Z,21.40
2018-07-07T04:15:39.657Z,25.00
2018-07-07T04:16:39.637Z,25.00
2018-07-07T04:17:39.673Z,22.90
2018-07-07T04:18:39.584Z,24.30
2018-07-07T04:19:39.554Z,45.20
2018-07-07T04:20:39.515Z,25.70
2018-07-07T04:21:39.487Z,25.70
2018-07-07T04:22:39.617Z,24.30
2018-07-07T04:23:39.400Z,27.50
2018-07-07T04:24:39.368Z,28.60
2018-07-07T04:25:39.344Z,18.60
2018-07-07T04:26:39.300Z,21.20
2018-07-07T04:27:39.723Z,17.00
2018-07-07T04:28:39.248Z,28.70
2018-07-07T04:29:39.209Z,20.30
2018-07-07T04:30:39.928Z,26.10
2018-07-07T04:31:39.137Z,16.40
2018-07-07T04:32:39.107Z,22.20
2018-07-07T04:33:39.871Z,20.90
2018-07-07T04:34:39.039Z,18.70
2018-07-07T04:35:39.044Z,24.50
2018-07-07T04:36:38.974Z,24.10
2018-07-07T04:37:38.942Z,21.00
2018-07-07T04:38:38.915Z,24.90
2018-07-07T04:39:38.876Z,20.70
2018-07-07T04:40:38.843Z,19.80
2018-07-07T04:41:38.818Z,18.20
2018-07-07T04:42:39.041Z,16.70
2018-07-07T04:43:38.753Z,19.00
2018-07-07T04:44:38.720Z,19.00
2018-07-07T04:45:38.695Z,19.30
2018-07-07T04:46:38.654Z,19.40
2018-07-07T04:47:38.622Z,22.80
2018-07-07T04:48:38.591Z,15.60
2018-07-07T04:49:38.570Z,19.10
2018-07-07T04:50:38.525Z,22.00
2018-07-07T04:51:38.494Z,18.90
2018-07-07T04:52:38.465Z,18.30
2018-07-07T04:53:38.429Z,17.20
2018-07-07T04:54:38.396Z,23.30
2018-07-07T04:55:38.367Z,15.60
2018-07-07T04:56:38.333Z,31.90
2018-07-07T04:57:38.302Z,15.40
2018-07-07T04:58:38.267Z,21.40
2018-07-07T04:59:38.238Z,20.90
2018-07-07T05:00:38.205Z,15.10
2018-07-07T05:01:38.172Z,16.00
2018-07-07T05:02:38.142Z,17.60
2018-07-07T05:03:38.107Z,17.40
2018-07-07T05:04:38.136Z,21.10
2018-07-07T05:05:38.043Z,19.50
2018-07-07T05:06:38.012Z,34.20
2018-07-07T05:07:37.982Z,35.60
2018-07-07T05:08:37.949Z,32.40
2018-07-07T05:09:37.920Z,46.90
2018-07-07T05:10:37.884Z,46.60
2018-07-07T05:11:37.857Z,33.30
2018-07-07T05:12:37.823Z,35.70
2018-07-07T05:13:37.791Z,33.40
2018-07-07T05:14:37.757Z,23.50
2018-07-07T05:15:37.773Z,25.60
2018-07-07T05:16:37.697Z,35.30
2018-07-07T05:17:37.665Z,34.50
2018-07-07T05:18:37.634Z,39.20
2018-07-07T05:19:37.601Z,24.80
2018-07-07T05:20:37.571Z,28.40
2018-07-07T05:21:37.539Z,25.50
2018-07-07T05:22:37.506Z,18.20
2018-07-07T05:23:37.470Z,21.30
2018-07-07T05:24:37.445Z,30.40
2018-07-07T05:25:37.412Z,38.90
2018-07-07T05:26:37.382Z,24.10
2018-07-07T05:27:37.352Z,24.40
2018-07-07T05:28:37.319Z,31.30
2018-07-07T05:29:37.289Z,14.60
2018-07-07T05:30:38.160Z,16.80
2018-07-07T05:31:37.225Z,24.00
2018-07-07T05:32:37.198Z,17.10
2018-07-07T05:33:37.165Z,13.00
2018-07-07T05:34:37.137Z,16.80
2018-07-07T05:35:37.103Z,10.50
2018-07-07T05:36:37.071Z,19.60
2018-07-07T05:37:37.042Z,18.60
2018-07-07T05:38:37.010Z,10.10
2018-07-07T05:39:36.973Z,12.70
2018-07-07T05:40:36.950Z,18.50
2018-07-07T05:41:36.920Z,12.30
2018-07-07T05:42:36.889Z,13.50
2018-07-07T05:43:36.855Z,18.00
2018-07-07T05:44:36.827Z,14.40
2018-07-07T05:45:36.795Z,11.70
2018-07-07T05:46:36.766Z,19.50
2018-07-07T05:47:36.756Z,13.70
2018-07-07T05:48:36.704Z,12.60
2018-07-07T05:49:36.672Z,20.00
2018-07-07T05:50:36.642Z,14.40
2018-07-07T05:51:36.613Z,16.80
2018-07-07T05:52:36.582Z,17.00
2018-07-07T05:53:36.556Z,13.00
2018-07-07T05:54:36.516Z,15.10
2018-07-07T05:55:36.490Z,13.60
2018-07-07T05:56:36.460Z,16.10
2018-07-07T05:57:36.430Z,13.70
2018-07-07T05:58:36.414Z,12.80
2018-07-07T05:59:36.366Z,12.10
2018-07-07T06:00:36.333Z,15.10
2018-07-07T06:01:36.307Z,12.70
2018-07-07T06:02:36.277Z,13.70
2018-07-07T06:03:36.246Z,13.30
2018-07-07T06:04:36.219Z,14.60
2018-07-07T06:05:36.186Z,11.10
2018-07-07T06:06:36.195Z,13.80
2018-07-07T06:07:36.124Z,9.50
2018-07-07T06:08:36.097Z,11.40
2018-07-07T06:09:36.064Z,12.10
2018-07-07T06:10:36.030Z,18.10
2018-07-07T06:11:36.005Z,23.80
2018-07-07T06:12:35.974Z,17.60
2018-07-07T06:13:36.066Z,16.20
2018-07-07T06:14:35.911Z,10.80
2018-07-07T06:15:35.877Z,16.60
2018-07-07T06:16:35.863Z,13.90
2018-07-07T06:17:35.819Z,16.90
2018-07-07T06:18:35.787Z,14.00
2018-07-07T06:19:35.761Z,9.80
2018-07-07T06:20:35.732Z,12.90
2018-07-07T06:21:35.701Z,11.90
2018-07-07T06:22:35.692Z,14.50
2018-07-07T06:23:35.640Z,14.60
2018-07-07T06:24:35.607Z,17.80
2018-07-07T06:25:35.583Z,20.30
2018-07-07T06:26:35.580Z,26.90
2018-07-07T06:27:35.521Z,17.20
2018-07-07T06:28:35.492Z,16.40
2018-07-07T06:29:35.469Z,12.90
2018-07-07T06:30:35.431Z,10.60
2018-07-07T06:31:35.403Z,11.80
2018-07-07T06:32:35.373Z,13.20
2018-07-07T06:33:35.342Z,13.30
2018-07-07T06:34:35.314Z,14.00
2018-07-07T06:35:35.289Z,17.00
2018-07-07T06:36:35.250Z,12.10
2018-07-07T06:37:35.223Z,13.60
2018-07-07T06:38:35.194Z,10.70
2018-07-07T06:39:35.163Z,16.00
2018-07-07T06:40:35.134Z,15.30
2018-07-07T06:41:35.104Z,12.90
2018-07-07T06:42:35.073Z,20.20
2018-07-07T06:43:35.049Z,10.10
2018-07-07T06:44:35.017Z,14.90
2018-07-07T06:45:35.071Z,9.80
2018-07-07T06:46:34.956Z,11.90
2018-07-07T06:47:34.931Z,18.30
2018-07-07T06:48:34.903Z,18.00
2018-07-07T06:49:34.874Z,18.00
2018-07-07T06:50:34.845Z,11.70
2018-07-07T06:51:34.817Z,13.40
2018-07-07T06:52:34.786Z,12.50
2018-07-07T06:53:34.774Z,13.90
2018-07-07T06:54:34.726Z,10.90
2018-07-07T06:55:34.700Z,13.60
2018-07-07T06:56:34.666Z,11.60
2018-07-07T06:57:34.648Z,14.90
2018-07-07T06:58:34.619Z,9.20
2018-07-07T06:59:34.653Z,10.80
2018-07-07T07:00:34.564Z,13.90
2018-07-07T07:01:34.531Z,12.00
2018-07-07T07:02:34.546Z,12.60
2018-07-07T07:03:34.491Z,16.90
2018-07-07T07:04:34.448Z,13.90
2018-07-07T07:05:34.419Z,12.70
2018-07-07T07:06:34.503Z,9.30
2018-07-07T07:07:35.049Z,10.10
2018-07-07T07:08:34.339Z,15.30
2018-07-07T07:09:34.307Z,15.40
2018-07-07T07:10:34.284Z,15.60
2018-07-07T07:11:34.255Z,10.50
2018-07-07T07:12:34.229Z,11.90
2018-07-07T07:13:34.224Z,11.30
2018-07-07T07:14:34.171Z,14.10
2018-07-07T07:15:34.143Z,14.00
2018-07-07T07:16:34.115Z,8.80
2018-07-07T07:17:34.088Z,15.30
2018-07-07T07:18:34.061Z,9.40
2018-07-07T07:19:34.039Z,15.80
2018-07-07T07:20:34.006Z,9.20
2018-07-07T07:21:33.980Z,10.00
2018-07-07T07:22:33.952Z,10.60
2018-07-07T07:23:33.927Z,11.80
2018-07-07T07:24:33.899Z,12.40
2018-07-07T07:25:33.873Z,11.30
2018-07-07T07:26:33.844Z,9.40
2018-07-07T07:27:33.818Z,14.10
2018-07-07T07:28:33.784Z,9.80
2018-07-07T07:29:33.768Z,11.00
2018-07-07T07:30:33.737Z,6.90
2018-07-07T07:31:33.711Z,8.90
2018-07-07T07:32:33.688Z,8.40
2018-07-07T07:33:33.658Z,15.90
2018-07-07T07:34:33.652Z,10.30
2018-07-07T07:35:33.605Z,10.60
2018-07-07T07:36:33.579Z,15.30
2018-07-07T07:37:33.551Z,11.30
2018-07-07T07:38:33.526Z,7.60
2018-07-07T07:39:33.498Z,8.70
2018-07-07T07:40:33.478Z,12.50
2018-07-07T07:41:33.450Z,11.40
2018-07-07T07:42:33.418Z,11.60
2018-07-07T07:43:33.393Z,15.50
2018-07-07T07:44:33.366Z,10.50
2018-07-07T07:45:33.336Z,9.30
2018-07-07T07:46:33.311Z,9.70
2018-07-07T07:47:33.285Z,15.00
2018-07-07T07:48:33.265Z,11.10
2018-07-07T07:49:33.230Z,11.10
2018-07-07T07:50:33.212Z,13.50
2018-07-07T07:51:33.178Z,12.60
2018-07-07T07:52:33.163Z,9.60
2018-07-07T07:53:33.115Z,11.30
2018-07-07T07:54:33.091Z,11.20
2018-07-07T07:55:33.070Z,8.70
2018-07-07T07:56:33.044Z,14.60
2018-07-07T07:57:33.013Z,12.50
2018-07-07T07:58:32.997Z,9.10
2018-07-07T07:59:32.962Z,10.10
2018-07-07T08:00:32.941Z,10.70
2018-07-07T08:01:32.917Z,10.20
2018-07-07T08:02:32.884Z,11.00
2018-07-07T08:03:32.855Z,13.70
2018-07-07T08:04:32.850Z,11.50
2018-07-07T08:05:32.803Z,10.90
2018-07-07T08:06:32.777Z,10.40
2018-07-07T08:07:32.750Z,10.90
2018-07-07T08:08:32.731Z,9.40
2018-07-07T08:09:32.698Z,11.00
2018-07-07T08:10:32.680Z,7.90
2018-07-07T08:11:32.647Z,8.50
2018-07-07T08:12:32.622Z,10.10
2018-07-07T08:13:32.593Z,9.80
2018-07-07T08:14:32.567Z,7.10
2018-07-07T08:15:32.543Z,10.90
2018-07-07T08:16:32.516Z,10.20
2018-07-07T08:17:32.493Z,11.90
2018-07-07T08:18:32.466Z,9.80
2018-07-07T08:19:32.439Z,11.80
2018-07-07T08:20:32.414Z,11.20
2018-07-07T08:21:32.387Z,9.60
2018-07-07T08:22:32.416Z,11.50
2018-07-07T08:23:32.338Z,9.30
2018-07-07T08:24:32.317Z,9.20
2018-07-07T08:25:32.285Z,8.60
2018-07-07T08:26:32.260Z,11.90
2018-07-07T08:27:32.237Z,7.90
2018-07-07T08:28:32.308Z,13.50
2018-07-07T08:29:32.187Z,8.60
2018-07-07T08:30:32.157Z,12.30
2018-07-07T08:31:32.135Z,8.70
2018-07-07T08:32:32.110Z,14.00
2018-07-07T08:33:32.087Z,10.30
2018-07-07T08:34:32.085Z,8.80
2018-07-07T08:35:32.036Z,11.50
2018-07-07T08:36:32.048Z,8.20
2018-07-07T08:37:31.986Z,11.60
2018-07-07T08:38:31.961Z,11.80
2018-07-07T08:39:31.937Z,12.40
2018-07-07T08:40:31.912Z,14.20
2018-07-07T08:41:31.887Z,13.30
2018-07-07T08:42:31.868Z,10.80
2018-07-07T08:43:31.849Z,11.50
2018-07-07T08:44:32.065Z,12.80
2018-07-07T08:45:31.787Z,9.40
2018-07-07T08:46:31.765Z,7.80
2018-07-07T08:47:31.738Z,7.40
2018-07-07T08:48:31.718Z,9.80
2018-07-07T08:49:31.689Z,7.40
2018-07-07T08:50:31.665Z,7.90
2018-07-07T08:51:31.640Z,8.70
2018-07-07T08:52:31.613Z,7.90
2018-07-07T08:53:31.590Z,7.10
2018-07-07T08:54:31.576Z,6.50
2018-07-07T08:55:31.538Z,5.10
2018-07-07T08:56:31.514Z,7.20
2018-07-07T08:57:31.492Z,6.50
2018-07-07T08:58:31.470Z,8.30
2018-07-07T08:59:31.445Z,10.50
2018-07-07T09:00:31.700Z,10.40
2018-07-07T09:01:31.397Z,12.90
2018-07-07T09:02:31.367Z,7.70
2018-07-07T09:03:31.350Z,8.80
2018-07-07T09:04:31.323Z,5.70
2018-07-07T09:05:31.298Z,4.90
2018-07-07T09:06:31.272Z,9.90
2018-07-07T09:07:31.246Z,12.20
2018-07-07T09:08:31.231Z,5.70
2018-07-07T09:09:31.199Z,5.90
2018-07-07T09:10:31.176Z,8.50
2018-07-07T09:11:31.152Z,9.70
2018-07-07T09:12:31.129Z,9.40
2018-07-07T09:13:31.105Z,9.40
2018-07-07T09:14:31.115Z,8.40
2018-07-07T09:15:31.055Z,5.70
2018-07-07T09:16:31.042Z,7.40
2018-07-07T09:17:31.011Z,8.20
2018-07-07T09:18:30.986Z,10.20
2018-07-07T09:19:30.964Z,4.90
2018-07-07T09:20:30.940Z,9.30
2018-07-07T09:21:30.913Z,5.50
2018-07-07T09:22:30.887Z,11.40
2018-07-07T09:23:30.876Z,7.70
2018-07-07T09:24:30.895Z,6.70
2018-07-07T09:25:30.815Z,6.90
2018-07-07T09:26:30.792Z,5.70
2018-07-07T09:27:30.773Z,6.00
2018-07-07T09:28:30.751Z,7.00
2018-07-07T09:29:30.733Z,4.70
2018-07-07T09:30:30.702Z,7.00
2018-07-07T09:31:30.696Z,6.20
2018-07-07T09:32:30.658Z,7.00
2018-07-07T09:33:30.633Z,8.20
2018-07-07T09:34:30.610Z,5.80
2018-07-07T09:35:30.583Z,5.50
2018-07-07T09:36:30.561Z,8.30
2018-07-07T09:37:30.567Z,7.10
2018-07-07T09:38:30.515Z,8.20
2018-07-07T09:39:30.983Z,8.00
2018-07-07T09:40:30.465Z,10.70
2018-07-07T09:41:30.442Z,5.10
2018-07-07T09:42:30.427Z,7.20
2018-07-07T09:43:31.024Z,6.70
2018-07-07T09:44:30.381Z,6.70
2018-07-07T09:45:30.357Z,4.00
2018-07-07T09:46:30.332Z,7.40
2018-07-07T09:47:30.303Z,7.70
2018-07-07T09:48:30.322Z,10.30
2018-07-07T09:49:30.321Z,5.50
2018-07-07T09:50:30.235Z,4.70
2018-07-07T09:51:30.208Z,6.30
2018-07-07T09:52:30.197Z,6.20
2018-07-07T09:53:30.164Z,4.40
2018-07-07T09:54:30.146Z,16.40
2018-07-07T09:55:30.120Z,7.10
2018-07-07T09:56:30.101Z,5.20
2018-07-07T09:57:30.079Z,5.30
2018-07-07T09:58:30.070Z,4.80
2018-07-07T09:59:30.028Z,7.30
2018-07-07T10:00:30.006Z,5.00
2018-07-07T10:01:29.987Z,5.80
2018-07-07T10:02:29.956Z,4.20
2018-07-07T10:03:29.937Z,4.10
2018-07-07T10:04:29.917Z,6.30
2018-07-07T10:05:29.891Z,4.30
2018-07-07T10:06:29.865Z,6.30
2018-07-07T10:07:29.987Z,5.50
2018-07-07T10:08:29.818Z,6.70
2018-07-07T10:09:29.802Z,4.40
2018-07-07T10:10:29.782Z,3.90
2018-07-07T10:11:29.750Z,6.90
2018-07-07T10:12:29.728Z,3.90
2018-07-07T10:13:29.727Z,3.60
2018-07-07T10:14:29.688Z,5.50
2018-07-07T10:15:29.671Z,3.30
2018-07-07T10:16:29.637Z,6.30
2018-07-07T10:17:29.622Z,4.60
2018-07-07T10:18:29.591Z,6.10
2018-07-07T10:19:29.574Z,8.60
2018-07-07T10:20:29.549Z,6.20
2018-07-07T10:21:29.528Z,7.70
2018-07-07T10:22:29.504Z,5.20
2018-07-07T10:23:29.480Z,7.10
2018-07-07T10:24:29.473Z,6.20
2018-07-07T10:25:29.434Z,7.50
2018-07-07T10:26:29.419Z,6.60
2018-07-07T10:27:29.395Z,4.20
2018-07-07T10:28:29.370Z,4.30
2018-07-07T10:29:29.346Z,8.30
2018-07-07T10:30:29.322Z,3.10
2018-07-07T10:31:29.332Z,6.10
2018-07-07T10:32:29.304Z,5.50
2018-07-07T10:33:29.259Z,2.90
2018-07-07T10:34:29.544Z,5.60
2018-07-07T10:35:29.216Z,6.50
2018-07-07T10:36:29.264Z,5.30
2018-07-07T10:37:29.212Z,3.50
2018-07-07T10:38:29.698Z,4.40
2018-07-07T10:39:29.156Z,4.20
2018-07-07T10:40:29.104Z,8.60
2018-07-07T10:41:29.082Z,8.20
2018-07-07T10:42:29.066Z,4.90
2018-07-07T10:43:29.040Z,4.10
2018-07-07T10:44:29.019Z,3.90
2018-07-07T10:45:29.064Z,6.60
2018-07-07T10:46:28.979Z,8.20
2018-07-07T10:47:29.119Z,6.50
2018-07-07T10:48:28.931Z,5.50
2018-07-07T10:49:28.910Z,6.60
2018-07-07T10:50:28.929Z,5.70
2018-07-07T10:51:28.867Z,5.40
2018-07-07T10:52:28.852Z,7.60
2018-07-07T10:53:28.815Z,6.50
2018-07-07T10:54:28.931Z,7.00
2018-07-07T10:55:28.971Z,9.90
2018-07-07T10:56:28.753Z,7.20
2018-07-07T10:57:28.996Z,6.70
2018-07-07T10:58:28.706Z,8.60
2018-07-07T10:59:28.697Z,8.30
2018-07-07T11:00:28.663Z,8.50
2018-07-07T11:01:28.646Z,8.90
2018-07-07T11:02:28.633Z,6.60
2018-07-07T11:03:28.596Z,8.70
2018-07-07T11:04:28.580Z,6.80
2018-07-07T11:05:28.550Z,9.90
2018-07-07T11:06:28.535Z,10.10
2018-07-07T11:07:28.532Z,9.60
2018-07-07T11:08:28.493Z,12.60
2018-07-07T11:09:28.470Z,8.90
2018-07-07T11:10:28.443Z,8.60
2018-07-07T11:11:28.424Z,12.40
2018-07-07T11:12:28.403Z,10.70
2018-07-07T11:13:28.398Z,8.10
2018-07-07T11:14:28.355Z,8.90
2018-07-07T11:15:28.342Z,6.00
2018-07-07T11:16:28.315Z,6.10
2018-07-07T11:17:28.289Z,7.30
2018-07-07T11:18:28.285Z,8.50
2018-07-07T11:19:28.294Z,7.20
2018-07-07T11:20:28.231Z,8.50
2018-07-07T11:21:28.203Z,10.20
2018-07-07T11:22:28.184Z,5.40
2018-07-07T11:23:28.165Z,12.10
2018-07-07T11:24:28.143Z,7.50
2018-07-07T11:25:28.128Z,5.20
2018-07-07T11:26:28.099Z,4.90
2018-07-07T11:27:28.077Z,4.70
2018-07-07T11:28:28.053Z,6.70
2018-07-07T11:29:28.034Z,3.90
2018-07-07T11:30:28.016Z,8.30
2018-07-07T11:31:28.007Z,6.50
2018-07-07T11:32:27.972Z,5.30
2018-07-07T11:33:27.953Z,5.70
2018-07-07T11:34:27.927Z,7.20
2018-07-07T11:35:27.907Z,6.40
2018-07-07T11:36:27.970Z,8.30
2018-07-07T11:37:27.869Z,8.70
2018-07-07T11:38:27.841Z,5.70
2018-07-07T11:39:27.822Z,16.90
2018-07-07T11:40:27.800Z,10.80
2018-07-07T11:41:27.776Z,6.60
2018-07-07T11:42:27.750Z,8.70
2018-07-07T11:43:27.732Z,5.60
2018-07-07T11:44:27.715Z,4.40
2018-07-07T11:45:27.688Z,4.80
2018-07-07T11:46:27.670Z,6.60
2018-07-07T11:47:27.663Z,4.90
2018-07-07T11:48:27.628Z,3.20
2018-07-07T11:49:27.601Z,5.70
2018-07-07T11:50:27.602Z,6.60
2018-07-07T11:51:27.579Z,4.30
2018-07-07T11:52:27.536Z,6.00
2018-07-07T11:53:27.513Z,4.90
2018-07-07T11:54:27.509Z,6.30
2018-07-07T11:55:27.475Z,9.60
2018-07-07T11:56:27.456Z,8.50
2018-07-07T11:57:27.436Z,5.10
2018-07-07T11:58:27.417Z,4.40
2018-07-07T11:59:27.392Z,3.50
2018-07-07T12:00:27.391Z,8.00
2018-07-07T12:01:27.358Z,7.70
2018-07-07T12:02:27.330Z,4.40
2018-07-07T12:03:27.444Z,8.00
2018-07-07T12:04:27.334Z,3.90
2018-07-07T12:05:27.263Z,5.40
2018-07-07T12:06:27.245Z,6.00
2018-07-07T12:07:27.224Z,5.10
2018-07-07T12:08:27.210Z,6.10
2018-07-07T12:09:27.649Z,6.60
2018-07-07T12:10:27.158Z,7.10
2018-07-07T12:11:27.217Z,5.70
2018-07-07T12:12:27.118Z,6.60
2018-07-07T12:13:27.096Z,2.40
2018-07-07T12:14:27.084Z,8.20
2018-07-07T12:15:27.056Z,7.30
2018-07-07T12:16:27.033Z,5.40
2018-07-07T12:17:27.044Z,2.60
2018-07-07T12:18:26.997Z,5.90
2018-07-07T12:19:26.967Z,3.10
2018-07-07T12:20:26.950Z,7.90
2018-07-07T12:21:26.923Z,4.20
2018-07-07T12:22:26.905Z,4.80
2018-07-07T12:23:26.886Z,4.80
2018-07-07T12:24:26.867Z,6.20
2018-07-07T12:25:26.860Z,3.20
2018-07-07T12:26:26.843Z,3.40
2018-07-07T12:27:26.797Z,3.90
2018-07-07T12:28:26.768Z,3.10
2018-07-07T12:29:26.752Z,2.40
2018-07-07T12:30:26.730Z,4.50
2018-07-07T12:31:27.226Z,5.70
2018-07-07T12:32:26.684Z,3.50
2018-07-07T12:33:26.669Z,3.90
2018-07-07T12:34:26.647Z,3.40
2018-07-07T12:35:26.619Z,2.60
2018-07-07T12:36:26.596Z,4.10
2018-07-07T12:37:26.577Z,4.80
2018-07-07T12:38:26.553Z,7.40
2018-07-07T12:39:26.527Z,4.80
2018-07-07T12:40:26.578Z,4.30
2018-07-07T12:41:26.485Z,4.10
2018-07-07T12:42:26.465Z,4.50
2018-07-07T12:43:26.462Z,6.60
2018-07-07T12:44:26.425Z,4.80
2018-07-07T12:45:26.397Z,2.30
2018-07-07T12:46:26.467Z,2.40
2018-07-07T12:47:26.384Z,2.70
2018-07-07T12:48:26.332Z,5.50
2018-07-07T12:49:26.314Z,6.30
2018-07-07T12:50:26.289Z,2.50
2018-07-07T12:51:26.261Z,4.00
2018-07-07T12:52:26.240Z,2.20
2018-07-07T12:53:26.242Z,2.60
2018-07-07T12:54:26.192Z,2.90
2018-07-07T12:55:26.173Z,7.40
2018-07-07T12:56:26.145Z,3.50
2018-07-07T12:57:26.121Z,7.00
2018-07-07T12:58:26.105Z,3.40
2018-07-07T12:59:26.081Z,2.90
2018-07-07T13:00:26.067Z,2.70
2018-07-07T13:01:26.033Z,3.10